Kota Kinabalu, Malaysia
Current Conditions -  °F | °C
As of 2:00 AM on Tuesday 21 Oct 2014 (Local Time) from WBKK Reporting Station
Broken Clouds Broken Clouds  
Wind Chill: 77°   Ceiling: 27000
Heat Index: 78°   Visibility: 6mi
Dew Point: 73°   Wind: 3mph
Humidity: 89%   Direction: 110°ESE
Pressure: 29.83"   Gusts: NA
Location:  5.97°N, 116.07°E
Report Text: WBKK 201800Z 11003KT 9999 FEW014 SCT140 BKN270 25/23 Q1010 NOSIG
Loading
Personal Weather Stations






























Interactive Weather Map
Tropical Storm Tracking
New forecast layout! Learn more

10-Day Weather Forecast

Advertisements
Track Severe Weather on mobile